Terminal Aerodrome Forecast
Issued by NWS

Home | Current Version | Previous Version | Text Only | Print | Product List | Glossary Off
Versions: 1 2 3 4 5 6 7 8 9 10 11 12 13 14 15 16 17 18 19 20 21 22 23 24 25 26 27

871
FTUS43 KBIS 301739
TAFMOT
TAF
KMOT 301739Z 3018/3118 04006KT P6SM VCTS BKN080CB
      TEMPO 3018/3020 VRB20G30KT -TSRA BKN040CB
     FM302000 04009KT P6SM -SHRA VCTS BKN050CB
     FM310100 34010G21KT P6SM -SHRA OVC035
     FM310600 31011KT P6SM -SHRA BKN010=

USA.gov is the U.S. government's official web portal to all federal, state and local government web resources and services.